Time;durP1;ratioP1;P1;durP2;ratioP2;P2;SDS_P1;SDS_P2;PMS_P1;PMS_P2;Temp;Humidity;BMP_temperature;BMP_pressure;BME280_temperature;BME280_humidity;BME280_pressure;Samples;Min_cycle;Max_cycle;Signal;HPM_P1;HPM_P2
2024/03/21 00:00:49;;;;;;;;;;;;;;;3.35;82.00;100690.23;103271;1255;138876;-77
2024/03/21 00:03:36;;;;;;;49.90;32.30;;;;;;;3.29;81.75;100687.81;103584;1251;99145;-76
2024/03/21 00:06:03;;;;;;;51.20;31.60;;;;;;;3.28;82.15;100693.48;103680;1251;107671;-77
2024/03/21 00:08:29;;;;;;;53.20;32.80;;;;;;;3.26;81.94;100691.23;103384;1255;140371;-77
2024/03/21 00:10:56;;;;;;;51.40;32.90;;;;;;;3.25;82.11;100685.73;103563;1251;112136;-77
2024/03/21 00:13:22;;;;;;;51.70;32.40;;;;;;;3.23;81.87;100685.55;103328;1252;138706;-77
2024/03/21 00:15:48;;;;;;;52.90;32.10;;;;;;;3.23;82.28;100687.10;103624;1251;98984;-77
2024/03/21 00:18:15;;;;;;;49.40;31.50;;;;;;;3.23;82.11;100685.54;103556;1251;107520;-76
2024/03/21 00:20:41;;;;;;;51.20;32.40;;;;;;;3.22;82.16;100687.77;104056;1252;138781;-77
2024/03/21 00:23:08;;;;;;;51.70;32.20;;;;;;;3.21;82.38;100683.29;104144;1252;112805;-78
2024/03/21 00:25:34;;;;;;;52.90;33.20;;;;;;;3.19;82.44;100678.30;103742;1251;138966;-76
2024/03/21 00:28:01;;;;;;;48.40;31.50;;;;;;;3.19;82.52;100678.98;103839;1251;97633;-76
2024/03/21 00:30:27;;;;;;;46.80;31.80;;;;;;;3.18;82.87;100677.61;104828;1252;107230;-77
2024/03/21 00:32:54;;;;;;;53.80;33.70;;;;;;;3.17;82.87;100676.40;104709;1251;139951;-76
2024/03/21 00:35:21;;;;;;;55.60;33.60;;;;;;;3.16;82.95;100674.86;104859;1252;112280;-77
2024/03/21 00:37:47;;;;;;;52.00;32.80;;;;;;;3.16;83.12;100675.03;103321;1255;138612;-77
2024/03/21 00:40:14;;;;;;;51.00;33.20;;;;;;;3.15;83.00;100670.20;103814;1252;99052;-77
2024/03/21 00:42:42;;;;;;;54.10;34.00;;;;;;;3.15;82.93;100670.90;103371;1251;140092;-76
2024/03/21 00:45:10;;;;;;;55.00;33.70;;;;;;;3.16;82.97;100672.96;103479;1251;99148;-76
2024/03/21 00:47:36;;;;;;;54.70;34.50;;;;;;;3.16;82.81;100675.03;104170;1251;112313;-77
2024/03/21 00:50:03;;;;;;;54.50;34.60;;;;;;;3.15;82.77;100672.09;103733;1251;139602;-76
2024/03/21 00:52:30;;;;;;;54.70;35.50;;;;;;;3.14;83.18;100671.92;103665;1251;99162;-76
2024/03/21 00:54:57;;;;;;;54.00;35.40;;;;;;;3.11;83.45;100676.90;103791;1253;142646;-77
2024/03/21 00:57:25;;;;;;;56.20;34.80;;;;;;;3.10;83.07;100675.00;103504;1255;99205;-75
2024/03/21 00:59:52;;;;;;;53.80;36.30;;;;;;;3.09;83.12;100669.16;103558;1252;112189;-76
2024/03/21 01:02:18;;;;;;;55.90;35.90;;;;;;;3.07;83.67;100669.84;103398;1251;138887;-77
2024/03/21 01:04:50;;;;;;;59.60;37.00;;;;;;;3.06;83.66;100667.25;103567;1251;99507;-76
2024/03/21 01:07:17;;;;;;;56.10;36.60;;;;;;;3.03;83.68;100661.20;103535;1254;138648;-75
2024/03/21 01:09:44;;;;;;;57.80;36.20;;;;;;;3.02;83.73;100661.71;103882;1251;99162;-75
2024/03/21 01:12:10;;;;;;;58.10;36.60;;;;;;;3.00;84.01;100660.52;103605;1255;112144;-75
2024/03/21 01:14:37;;;;;;;55.20;36.20;;;;;;;2.98;84.06;100658.27;103720;1251;138686;-75
2024/03/21 01:17:04;;;;;;;51.60;34.90;;;;;;;2.98;84.43;100657.41;103739;1251;99173;-75
2024/03/21 01:19:30;;;;;;;55.30;34.90;;;;;;;2.96;84.39;100652.94;103887;1251;138958;-74
2024/03/21 01:21:57;;;;;;;54.60;35.90;;;;;;;2.96;84.58;100652.77;103774;1251;99261;-75
2024/03/21 01:24:24;;;;;;;56.90;35.10;;;;;;;2.95;84.65;100654.66;103512;1251;113922;-75
2024/03/21 01:26:51;;;;;;;56.60;34.20;;;;;;;2.95;84.49;100649.33;103416;1251;138765;-75
2024/03/21 01:29:18;;;;;;;54.30;35.60;;;;;;;2.95;84.87;100646.58;104030;1251;99153;-75
2024/03/21 01:31:44;;;;;;;50.70;34.50;;;;;;;2.95;85.67;100643.83;103701;1251;138510;-75
2024/03/21 01:34:11;;;;;;;55.90;35.70;;;;;;;2.93;85.36;100638.67;103800;1251;99186;-74
2024/03/21 01:36:45;;;;;;;56.00;35.60;;;;;;;2.93;85.57;100631.11;103701;1251;112659;-77
2024/03/21 01:39:12;;;;;;;59.60;36.70;;;;;;;2.93;85.54;100629.39;103528;1251;108933;-75
2024/03/21 01:41:39;;;;;;;54.80;35.30;;;;;;;2.92;85.62;100632.31;103535;1255;99051;-75
2024/03/21 01:44:05;;;;;;;55.00;35.80;;;;;;;2.91;86.04;100628.02;103727;1251;138517;-75
2024/03/21 01:46:31;;;;;;;57.10;36.40;;;;;;;2.90;85.91;100628.88;103675;1255;99296;-76
2024/03/21 01:48:58;;;;;;;54.30;36.20;;;;;;;2.88;86.31;100624.23;103440;1252;139264;-75
2024/03/21 01:51:27;;;;;;;54.50;36.40;;;;;;;2.86;86.34;100619.73;103703;1251;107325;-74
2024/03/21 01:53:55;;;;;;;63.20;37.70;;;;;;;2.86;86.72;100617.32;103424;1252;99180;-75
2024/03/21 01:56:22;;;;;;;59.40;37.00;;;;;;;2.85;86.93;100620.06;104012;1252;138593;-76
2024/03/21 01:58:49;;;;;;;58.50;36.80;;;;;;;2.83;87.71;100617.48;104354;1251;97568;-76
2024/03/21 02:01:26;;;;;;;55.90;36.10;;;;;;;2.82;87.69;100612.66;103641;1251;139060;-75
2024/03/21 02:03:53;;;;;;;60.70;38.00;;;;;;;2.81;87.47;100613.02;103597;1251;106634;-75
2024/03/21 02:06:21;;;;;;;57.80;37.20;;;;;;;2.80;87.90;100607.16;103579;1255;99668;-75
2024/03/21 02:08:48;;;;;;;56.60;37.90;;;;;;;2.79;87.50;100608.36;103645;1251;139101;-78
2024/03/21 02:11:15;;;;;;;58.80;37.20;;;;;;;2.79;87.44;100609.22;103455;1251;1002311;-77
2024/03/21 02:13:43;;;;;;;57.10;36.90;;;;;;;2.79;87.37;100606.48;103994;1252;138808;-78
2024/03/21 02:16:10;;;;;;;59.00;36.90;;;;;;;2.80;87.29;100608.20;103435;1253;107290;-77
2024/03/21 02:18:37;;;;;;;55.20;36.90;;;;;;;2.79;87.96;100610.25;103512;1255;99172;-77
2024/03/21 02:21:06;;;;;;;59.40;36.90;;;;;;;2.79;87.40;100610.95;103412;1251;107747;-77
2024/03/21 02:23:33;;;;;;;59.90;38.10;;;;;;;2.78;87.45;100610.77;104414;1251;97636;-76
2024/03/21 02:26:00;;;;;;;58.20;37.70;;;;;;;2.76;87.12;100611.45;104323;1252;137552;-76
2024/03/21 02:28:26;;;;;;;55.50;38.20;;;;;;;2.75;86.76;100612.46;104611;1251;107678;-76
2024/03/21 02:30:55;;;;;;;62.90;38.70;;;;;;;2.72;87.00;100611.60;103376;1252;140023;-75
2024/03/21 02:33:22;;;;;;;64.50;40.50;;;;;;;2.69;87.12;100613.81;103963;1251;107671;-76
2024/03/21 02:35:49;;;;;;;61.80;40.00;;;;;;;2.67;86.54;100616.52;104150;1251;99149;-76
2024/03/21 02:38:15;;;;;;;65.00;40.70;;;;;;;2.64;86.66;100611.70;103370;1251;138685;-75
2024/03/21 02:40:42;;;;;;;64.10;40.60;;;;;;;2.62;87.08;100617.20;103440;1251;106748;-76
2024/03/21 02:43:08;;;;;;;59.60;39.00;;;;;;;2.57;86.81;100619.07;103392;1251;139545;-76
2024/03/21 02:45:34;;;;;;;62.90;40.30;;;;;;;2.55;86.94;100618.70;103410;1251;107762;-76
2024/03/21 02:48:01;;;;;;;63.40;39.60;;;;;;;2.51;87.04;100617.48;103391;1251;99044;-77
2024/03/21 02:50:28;;;;;;;65.70;40.60;;;;;;;2.50;87.14;100618.48;103297;1255;140107;-76
2024/03/21 02:52:55;;;;;;;65.80;41.20;;;;;;;2.49;87.38;100617.45;103420;1251;108746;-75
2024/03/21 02:55:21;;;;;;;62.10;39.50;;;;;;;2.47;87.73;100615.72;103369;1256;138822;-74
2024/03/21 02:57:48;;;;;;;62.90;39.50;;;;;;;2.45;87.75;100616.91;103812;1252;107045;-75
2024/03/21 03:00:17;;;;;;;60.30;39.60;;;;;;;2.43;88.26;100616.73;103564;1251;99139;-75
2024/03/21 03:02:43;;;;;;;59.70;39.80;;;;;;;2.41;88.46;100616.39;103717;1255;140296;-75
2024/03/21 03:05:13;;;;;;;63.50;40.40;;;;;;;2.39;88.45;100611.91;103606;1251;110763;-75
2024/03/21 03:07:39;;;;;;;64.30;40.70;;;;;;;2.39;89.19;100610.54;103402;1251;138694;-74
2024/03/21 03:10:07;;;;;;;61.60;40.20;;;;;;;2.37;88.73;100605.04;103528;1251;108533;-76
2024/03/21 03:12:34;;;;;;;64.90;39.50;;;;;;;2.37;88.92;100608.29;103284;1252;1002310;-77
2024/03/21 03:15:01;;;;;;;63.10;40.20;;;;;;;2.35;88.85;100609.99;103310;1251;139257;-76
2024/03/21 03:17:28;;;;;;;62.10;40.00;;;;;;;2.35;88.69;100608.80;103424;1251;107026;-76
2024/03/21 03:19:54;;;;;;;62.50;40.80;;;;;;;2.34;88.68;100613.25;103377;1251;138712;-76
2024/03/21 03:22:20;;;;;;;59.70;40.10;;;;;;;2.34;89.10;100612.04;103469;1255;107478;-77
2024/03/21 03:24:47;;;;;;;58.90;40.60;;;;;;;2.32;89.27;100616.82;103294;1255;139409;-77
2024/03/21 03:27:13;;;;;;;65.80;40.80;;;;;;;2.31;89.01;100618.52;103517;1251;113142;-74
2024/03/21 03:29:40;;;;;;;62.90;41.00;;;;;;;2.30;88.90;100614.56;103502;1255;107749;-74
2024/03/21 03:32:08;;;;;;;58.40;39.80;;;;;;;2.28;88.87;100615.93;103484;1251;139475;-76
2024/03/21 03:37:19;;;;;;;61.80;41.00;;;;;;;2.24;89.59;100612.98;103581;1255;138998;-76
2024/03/21 03:39:45;;;;;;;66.50;42.40;;;;;;;2.21;89.73;100609.03;103572;1251;113271;-76
2024/03/21 03:42:12;;;;;;;63.60;41.10;;;;;;;2.19;89.70;100604.04;103447;1251;106752;-76
2024/03/21 03:44:38;;;;;;;66.90;42.30;;;;;;;2.17;89.45;100600.77;103280;1255;138866;-75
2024/03/21 03:47:05;;;;;;;68.60;41.30;;;;;;;2.15;89.64;100599.37;103446;1253;107675;-76
2024/03/21 03:49:32;;;;;;;64.60;41.80;;;;;;;2.14;89.49;100592.15;103337;1255;139125;-75
2024/03/21 03:52:00;;;;;;;65.10;41.00;;;;;;;2.12;89.91;100592.83;103435;1252;112491;-77
2024/03/21 03:54:27;;;;;;;65.40;42.50;;;;;;;2.10;89.97;100597.79;103426;1253;107273;-78
2024/03/21 03:56:53;;;;;;;65.20;42.10;;;;;;;2.09;90.21;100597.95;103433;1255;138636;-78
2024/03/21 03:59:19;;;;;;;65.00;42.10;;;;;;;2.08;90.35;100596.74;103454;1251;108050;-78
2024/03/21 04:01:47;;;;;;;65.90;42.60;;;;;;;2.06;90.69;100589.86;103258;1251;139829;-78
2024/03/21 04:04:14;;;;;;;68.80;42.90;;;;;;;2.06;90.59;100599.48;103435;1251;113970;-78
2024/03/21 04:06:41;;;;;;;70.90;43.10;;;;;;;2.04;90.84;100601.70;103398;1251;107567;-78
2024/03/21 04:09:07;;;;;;;66.80;43.60;;;;;;;2.02;91.14;100605.80;103455;1253;99165;-78
2024/03/21 04:11:34;;;;;;;68.30;42.90;;;;;;;2.00;90.97;100609.90;103402;1255;107678;-78
2024/03/21 04:14:00;;;;;;;68.80;43.20;;;;;;;1.99;90.75;100611.44;103306;1256;138921;-78
2024/03/21 04:16:26;;;;;;;72.20;43.80;;;;;;;1.97;90.93;100607.29;103470;1251;112571;-77
2024/03/21 04:18:53;;;;;;;68.50;44.50;;;;;;;1.96;91.11;100611.55;103335;1251;139410;-78
2024/03/21 04:21:19;;;;;;;72.20;42.60;;;;;;;1.93;90.83;100605.88;103455;1255;99555;-75
2024/03/21 04:23:46;;;;;;;69.80;44.00;;;;;;;1.91;90.88;100605.35;103398;1251;109953;-76
2024/03/21 04:26:12;;;;;;;67.70;44.30;;;;;;;1.90;90.76;100609.80;103382;1251;138681;-76
2024/03/21 04:28:40;;;;;;;72.70;45.80;;;;;;;1.88;91.03;100608.92;103440;1253;112647;-77
2024/03/21 04:31:06;;;;;;;68.10;44.00;;;;;;;1.87;91.24;100607.38;103373;1251;139346;-76
2024/03/21 04:33:33;;;;;;;68.60;43.90;;;;;;;1.88;91.03;100616.98;103540;1251;99162;-77
2024/03/21 04:36:00;;;;;;;70.70;43.00;;;;;;;1.88;91.16;100619.05;103415;1251;107422;-78
2024/03/21 04:38:27;;;;;;;66.50;41.20;;;;;;;1.89;90.97;100618.54;103342;1253;139248;-77
2024/03/21 04:41:11;;;;;;;66.00;43.10;;;;;;;1.90;91.43;100625.06;103466;1252;114202;-76
2024/03/21 04:43:38;;;;;;;68.20;43.20;;;;;;;1.91;91.37;100620.27;103258;1255;140884;-77
2024/03/21 04:46:05;;;;;;;64.70;41.90;;;;;;;1.93;91.30;100626.79;103495;1255;99051;-77
2024/03/21 04:48:31;;;;;;;65.10;42.70;;;;;;;1.94;91.24;100633.66;103415;1252;107485;-77
2024/03/21 04:50:58;;;;;;;67.60;42.50;;;;;;;1.95;91.43;100634.02;103255;1255;138599;-77
2024/03/21 04:53:25;;;;;;;68.20;43.80;;;;;;;1.95;91.35;100630.41;103468;1251;111594;-76
2024/03/21 04:55:51;;;;;;;65.90;42.20;;;;;;;1.96;91.16;100629.39;103331;1251;138778;-76
2024/03/21 04:58:17;;;;;;;67.30;42.30;;;;;;;1.97;91.25;100627.68;103449;1251;99687;-76
2024/03/21 05:00:44;;;;;;;69.50;43.20;;;;;;;2.03;91.09;100629.81;103290;1255;139042;-76
2024/03/21 05:03:10;;;;;;;65.60;43.10;;;;;;;2.11;90.99;100627.64;103381;1251;99833;-75
2024/03/21 05:05:35;;;;;;;;;;;;;;;2.20;90.60;100630.65;103450;1252;112711;-75
2024/03/21 05:08:02;;;;;;;63.80;41.80;;;;;;;2.22;90.33;100626.36;103337;1251;124912;-75
2024/03/21 05:10:28;;;;;;;62.00;41.30;;;;;;;2.25;90.20;100624.84;103400;1255;99679;-75
2024/03/21 05:12:53;;;;;;;;;;;;;;;2.28;90.17;100625.03;103259;1252;138961;-75
2024/03/21 05:15:19;;;;;;;62.80;40.80;;;;;;;2.31;89.85;100626.42;103460;1252;99615;-77
2024/03/21 05:17:45;;;;;;;;;;;;;;;2.42;89.68;100626.69;103445;1251;112142;-76
2024/03/21 05:20:12;;;;;;;62.10;41.50;;;;;;;2.61;89.52;100623.04;103296;1251;125810;-75
2024/03/21 05:22:39;;;;;;;58.30;39.40;;;;;;;3.00;88.76;100621.70;103423;1252;99242;-76
2024/03/21 05:25:07;;;;;;;58.00;38.80;;;;;;;3.58;87.51;100627.05;103332;1251;139765;-74
2024/03/21 05:27:33;;;;;;;53.50;36.90;;;;;;;4.30;85.80;100621.08;103441;1255;99159;-74
2024/03/21 05:29:59;;;;;;;55.60;37.20;;;;;;;5.05;83.79;100618.16;103430;1253;112326;-74
2024/03/21 05:32:26;;;;;;;51.00;35.90;;;;;;;5.84;81.67;100621.38;103209;1252;139386;-76
2024/03/21 05:34:51;;;;;;;;;;;;;;;6.59;79.79;100613.33;103485;1251;99158;-74
2024/03/21 05:37:17;;;;;;;50.50;34.60;;;;;;;7.38;77.01;100614.50;103410;1251;124740;-77
2024/03/21 05:39:43;;;;;;;47.20;34.30;;;;;;;8.28;74.40;100607.61;103394;1253;99066;-76
2024/03/21 05:42:10;;;;;;;44.20;32.80;;;;;;;9.17;71.48;100604.39;103504;1251;114569;-75
2024/03/21 05:44:36;;;;;;;46.70;33.80;;;;;;;10.05;69.91;100611.98;103354;1255;138489;-75
2024/03/21 05:47:21;;;;;;;42.30;31.80;;;;;;;10.77;66.77;100605.27;103307;1252;102541;-75
2024/03/21 05:49:47;;;;;;;42.40;32.00;;;;;;;11.57;65.05;100609.05;103376;1251;139317;-75
2024/03/21 05:52:13;;;;;;;40.50;32.00;;;;;;;12.12;61.85;100603.16;103469;1255;99665;-76
2024/03/21 05:54:40;;;;;;;39.30;31.30;;;;;;;12.43;58.97;100596.03;103486;1252;112595;-76
2024/03/21 05:57:05;;;;;;;;;;;;;;;12.76;58.53;100594.69;103447;1252;106080;-77
2024/03/21 05:59:32;;;;;;;35.60;28.60;;;;;;;13.11;56.72;100598.65;103584;1255;99563;-85
2024/03/21 06:01:58;;;;;;;34.90;29.70;;;;;;;13.45;55.82;100597.23;103344;1256;138405;-80
2024/03/21 06:04:23;;;;;;;;;;;;;;;13.93;56.05;100600.39;103535;1255;99151;-78
2024/03/21 06:06:49;;;;;;;38.10;29.10;;;;;;;14.05;54.66;100597.77;103346;1255;125143;-79
2024/03/21 06:09:18;;;;;;;;;;;;;;;13.20;53.97;100600.23;103338;1255;107065;-78
2024/03/21 06:11:44;;;;;;;34.40;26.80;;;;;;;12.16;53.42;100609.09;103485;1251;99057;-86
2024/03/21 06:14:10;;;;;;;34.00;27.10;;;;;;;11.29;54.54;100611.80;103356;1254;138327;-86
2024/03/21 06:16:36;;;;;;;34.50;26.90;;;;;;;10.71;55.62;100614.46;103486;1252;99217;-81
2024/03/21 06:19:03;;;;;;;34.10;27.60;;;;;;;10.36;55.97;100612.45;103381;1253;138937;-78
2024/03/21 06:21:29;;;;;;;37.80;28.10;;;;;;;10.09;56.53;100618.28;103492;1255;107229;-83
2024/03/21 06:23:56;;;;;;;37.60;27.60;;;;;;;9.61;56.64;100617.85;103527;1255;99680;-88
2024/03/21 06:26:22;;;;;;;40.70;27.80;;;;;;;9.17;57.67;100620.01;103426;1255;138749;-82
2024/03/21 06:28:48;;;;;;;35.40;28.10;;;;;;;8.97;58.40;100623.01;103487;1255;99283;-79
2024/03/21 06:31:15;;;;;;;36.70;28.00;;;;;;;8.94;59.36;100624.96;103359;1252;138430;-81
2024/03/21 06:33:39;;;;;;;;;;;;;;;8.88;59.77;100623.54;103492;1252;106701;-82
2024/03/21 06:36:07;;;;;;;35.40;27.60;;;;;;;8.88;59.88;100630.29;103512;1251;99227;-78
2024/03/21 06:38:33;;;;;;;34.80;26.70;;;;;;;8.92;59.86;100628.65;103353;1251;138170;-90
2024/03/21 06:40:59;;;;;;;38.90;27.80;;;;;;;9.07;59.86;100627.14;103489;1255;99155;-82
2024/03/21 06:43:24;;;;;;;;;;;;;;;9.50;59.80;100630.92;103405;1253;137907;-76
2024/03/21 06:45:56;;;;;;;36.10;27.70;;;;;;;10.35;59.64;100618.88;103475;1252;107936;-77
2024/03/21 06:48:23;;;;;;;37.10;27.10;;;;;;;11.28;57.00;100615.48;103472;1252;99663;-79
2024/03/21 06:50:49;;;;;;;38.10;28.10;;;;;;;11.88;55.90;100615.94;103340;1253;138344;-80
2024/03/21 06:53:16;;;;;;;33.80;26.20;;;;;;;12.27;53.61;100612.95;103504;1253;99163;-81
2024/03/21 06:55:42;;;;;;;38.00;26.80;;;;;;;12.36;52.96;100606.18;103314;1253;138229;-79
2024/03/21 06:58:07;;;;;;;;;;;;;;;12.36;52.87;100600.05;103486;1251;106571;-81
2024/03/21 07:00:33;;;;;;;32.10;25.20;;;;;;;12.39;52.85;100604.52;103545;1255;99158;-80
2024/03/21 07:02:59;;;;;;;30.40;25.20;;;;;;;12.56;52.38;100605.16;104284;1253;138146;-79
2024/03/21 07:05:26;;;;;;;31.60;25.40;;;;;;;13.24;52.12;100608.98;104025;1251;99246;-80
2024/03/21 07:07:54;;;;;;;29.50;23.50;;;;;;;13.62;50.33;100611.23;103313;1255;138877;-79
2024/03/21 07:10:21;;;;;;;28.20;23.20;;;;;;;13.58;49.60;100615.25;103422;1251;107830;-79
2024/03/21 07:12:48;;;;;;;30.90;23.00;;;;;;;13.65;49.01;100618.48;103240;1255;138561;-77
2024/03/21 07:15:16;;;;;;;28.10;22.90;;;;;;;13.89;47.84;100621.52;103422;1255;109262;-78
2024/03/21 07:17:42;;;;;;;25.60;21.30;;;;;;;14.58;47.51;100615.39;103457;1252;99022;-78
2024/03/21 07:20:11;;;;;;;24.30;19.70;;;;;;;15.18;45.25;100616.74;103393;1255;138136;-78
2024/03/21 07:22:38;;;;;;;27.30;20.50;;;;;;;15.64;45.19;100618.84;103336;1255;107616;-77
2024/03/21 07:25:06;;;;;;;29.30;20.10;;;;;;;15.62;43.69;100613.33;103328;1255;139662;-84
2024/03/21 07:27:33;;;;;;;26.50;19.90;;;;;;;15.32;43.68;100614.38;103380;1253;107541;-79
2024/03/21 07:29:59;;;;;;;25.20;20.10;;;;;;;15.25;43.72;100611.71;103229;1255;99168;-80
2024/03/21 07:32:25;;;;;;;24.70;19.30;;;;;;;15.32;44.31;100607.70;103334;1252;138183;-78
2024/03/21 07:34:53;;;;;;;23.20;19.80;;;;;;;15.55;43.22;100605.58;103428;1252;106902;-78
2024/03/21 07:37:20;;;;;;;20.90;18.20;;;;;;;15.62;43.73;100604.73;103341;1252;138676;-78
2024/03/21 07:39:44;;;;;;;;;;;;;;;15.91;43.25;100606.02;103481;1255;107562;-78
2024/03/21 07:42:11;;;;;;;21.40;17.60;;;;;;;16.25;43.52;100596.42;103425;1256;99031;-78
2024/03/21 07:44:37;;;;;;;22.00;17.20;;;;;;;16.59;42.08;100607.50;103296;1251;138234;-79
2024/03/21 07:47:04;;;;;;;22.70;15.90;;;;;;;16.75;40.77;100608.14;103380;1255;106813;-78
2024/03/21 07:49:30;;;;;;;19.80;16.20;;;;;;;16.67;40.55;100601.52;103352;1252;138633;-78
2024/03/21 07:52:00;;;;;;;;;;;;;;;16.73;41.36;100595.94;103462;1255;108659;-76
2024/03/21 07:54:29;;;;;;;21.80;15.40;;;;;;;16.86;39.98;100594.55;103809;1255;99207;-79
2024/03/21 07:56:55;;;;;;;21.40;15.40;;;;;;;16.85;39.51;100603.89;103384;1253;138179;-78
2024/03/21 07:59:23;;;;;;;19.00;15.50;;;;;;;16.80;39.70;100592.58;103401;1255;107019;-77
2024/03/21 08:01:49;;;;;;;20.40;15.30;;;;;;;16.52;40.34;100590.66;103314;1252;138304;-78
2024/03/21 08:04:15;;;;;;;17.20;14.70;;;;;;;16.43;40.57;100578.84;103399;1252;106949;-77
2024/03/21 08:06:40;;;;;;;;;;;;;;;15.89;40.45;100588.73;103388;1253;99189;-78
2024/03/21 08:09:09;;;;;;;19.00;14.30;;;;;;;15.45;41.67;100586.27;103462;1255;112167;-79
2024/03/21 08:11:35;;;;;;;23.80;14.70;;;;;;;15.19;41.77;100590.63;103377;1255;107405;-79
2024/03/21 08:14:00;;;;;;;;;;;;;;;15.10;41.78;100590.15;103268;1253;138711;-79
2024/03/21 08:16:27;;;;;;;17.50;14.10;;;;;;;15.18;42.07;100577.19;103441;1253;108217;-79
2024/03/21 08:18:51;;;;;;;;;;;;;;;15.46;42.04;100581.13;103356;1252;140243;-79
2024/03/21 08:21:19;;;;;;;20.00;15.30;;;;;;;15.62;41.23;100571.27;103475;1255;113686;-80
2024/03/21 08:23:49;;;;;;;16.60;14.30;;;;;;;15.73;41.19;100569.70;103395;1251;106870;-79
2024/03/21 08:26:13;;;;;;;;;;;;;;;15.85;40.37;100584.77;103283;1255;138656;-77
2024/03/21 08:28:40;;;;;;;19.20;14.30;;;;;;;15.87;40.61;100569.18;103421;1251;107429;-79
2024/03/21 08:31:05;;;;;;;;;;;;;;;16.02;40.42;100568.27;103368;1255;138696;-78
2024/03/21 08:33:31;;;;;;;20.90;14.70;;;;;;;16.02;39.92;100573.39;103371;1255;113379;-78
2024/03/21 08:35:56;;;;;;;;;;;;;;;16.04;40.26;100572.75;103287;1253;107805;-78
2024/03/21 08:38:22;;;;;;;18.40;14.00;;;;;;;16.26;40.26;100576.34;103216;1255;124910;-78
2024/03/21 08:40:51;;;;;;;;;;;;;;;16.45;40.09;100561.19;103473;1255;107360;-78
2024/03/21 08:43:17;;;;;;;19.20;14.40;;;;;;;16.63;40.01;100556.04;103343;1253;124996;-83
2024/03/21 08:45:46;;;;;;;15.80;13.40;;;;;;;16.71;39.84;100551.06;103433;1253;111991;-82
2024/03/21 08:48:13;;;;;;;19.30;13.70;;;;;;;16.75;40.05;100549.98;103469;1253;106943;-80
2024/03/21 08:50:40;;;;;;;15.90;13.30;;;;;;;16.87;40.40;100547.92;103412;1255;138300;-82
2024/03/21 08:53:06;;;;;;;19.40;13.50;;;;;;;17.15;41.03;100544.33;103349;1251;106229;-77
2024/03/21 08:55:33;;;;;;;16.20;12.70;;;;;;;17.55;40.34;100546.16;103234;1251;138451;-74
2024/03/21 08:58:00;;;;;;;16.20;13.20;;;;;;;17.48;39.97;100539.11;103204;1256;111675;-76
2024/03/21 09:00:27;;;;;;;16.50;12.90;;;;;;;17.45;40.24;100550.77;103395;1255;107437;-74
2024/03/21 09:02:53;;;;;;;17.00;12.50;;;;;;;17.36;39.17;100558.82;103202;1256;138600;-73
2024/03/21 09:05:19;;;;;;;15.60;11.90;;;;;;;17.17;39.08;100560.54;103361;1256;107793;-73
2024/03/21 09:07:46;;;;;;;14.20;11.70;;;;;;;17.02;39.24;100563.69;103402;1255;138627;-74
2024/03/21 09:10:13;;;;;;;19.50;12.10;;;;;;;16.78;39.74;100560.56;103337;1251;114612;-75
2024/03/21 09:12:42;;;;;;;14.70;11.70;;;;;;;16.95;39.97;100562.30;103128;1251;106486;-75
2024/03/21 09:15:11;;;;;;;16.10;12.20;;;;;;;17.18;40.79;100558.39;103411;1251;100812;-75
2024/03/21 09:17:37;;;;;;;13.40;11.60;;;;;;;17.57;40.21;100558.01;103944;1255;107674;-76
2024/03/21 09:20:04;;;;;;;13.70;11.30;;;;;;;17.52;39.28;100559.34;103851;1255;140358;-77
2024/03/21 09:22:30;;;;;;;15.50;12.60;;;;;;;17.29;39.43;100556.03;103265;1251;113067;-75
2024/03/21 09:24:57;;;;;;;14.60;12.50;;;;;;;17.02;38.86;100562.25;103277;1252;138628;-75
2024/03/21 09:27:22;;;;;;;;;;;;;;;16.90;39.70;100556.39;103881;1251;99265;-74
2024/03/21 09:29:58;;;;;;;15.10;12.40;;;;;;;16.90;38.88;100562.38;103195;1251;107881;-76
2024/03/21 09:32:25;;;;;;;17.70;12.70;;;;;;;16.71;39.46;100560.40;103339;1255;138613;-75
2024/03/21 09:34:51;;;;;;;16.50;13.30;;;;;;;16.57;39.41;100555.65;103454;1255;112364;-76
2024/03/21 09:37:19;;;;;;;18.60;12.50;;;;;;;16.46;39.30;100557.45;103148;1253;138820;-75
2024/03/21 09:39:48;;;;;;;16.20;12.20;;;;;;;16.36;39.58;100557.83;103386;1255;99081;-75
2024/03/21 09:42:18;;;;;;;17.40;12.90;;;;;;;16.30;39.88;100553.52;104155;1252;107242;-74
2024/03/21 09:44:49;;;;;;;18.20;13.60;;;;;;;16.12;40.12;100547.95;103311;1255;140243;-71
2024/03/21 09:47:17;;;;;;;16.40;12.80;;;;;;;15.96;40.30;100539.80;103943;1251;111463;-72
2024/03/21 09:49:43;;;;;;;18.90;13.40;;;;;;;15.96;40.48;100542.77;103358;1253;138486;-73
2024/03/21 09:52:11;;;;;;;16.90;14.40;;;;;;;16.05;40.52;100538.13;103694;1253;99161;-73
2024/03/21 09:54:38;;;;;;;17.80;14.10;;;;;;;15.97;40.34;100535.23;103559;1255;107978;-76
2024/03/21 09:57:06;;;;;;;19.50;14.40;;;;;;;15.88;40.59;100535.49;104032;1255;138714;-75
2024/03/21 09:59:32;;;;;;;19.70;14.40;;;;;;;15.71;40.83;100526.34;103400;1257;112798;-74
2024/03/21 10:01:57;;;;;;;;;;;;;;;15.71;41.10;100529.50;103222;1257;138644;-75
2024/03/21 10:04:23;;;;;;;18.40;14.00;;;;;;;15.79;41.66;100526.66;103337;1256;99749;-74
2024/03/21 10:06:48;;;;;;;;;;;;;;;15.96;41.39;100523.66;103829;1257;139589;-74
2024/03/21 10:09:15;;;;;;;18.50;14.30;;;;;;;15.87;41.47;100524.66;103430;1256;99040;-75
2024/03/21 10:11:42;;;;;;;18.40;13.90;;;;;;;15.78;40.53;100529.51;103531;1256;112362;-74
2024/03/21 10:14:12;;;;;;;16.10;13.50;;;;;;;15.59;40.94;100526.04;103355;1255;138299;-75
2024/03/21 10:16:40;;;;;;;18.50;15.30;;;;;;;15.48;41.37;100518.84;103836;1251;99655;-74
2024/03/21 10:19:07;;;;;;;19.20;14.80;;;;;;;15.43;41.30;100522.20;103530;1253;138511;-74
2024/03/21 10:21:34;;;;;;;19.10;14.50;;;;;;;15.28;40.80;100524.50;103432;1253;99878;-75
2024/03/21 10:24:02;;;;;;;;;;;;;;;15.07;41.37;100520.05;103397;1256;110969;-75
2024/03/21 10:26:30;;;;;;;18.50;14.90;;;;;;;14.93;41.61;100514.93;103481;1255;124588;-75
2024/03/21 10:28:56;;;;;;;17.30;15.40;;;;;;;14.75;41.55;100513.85;103446;1255;99147;-75
2024/03/21 10:31:23;;;;;;;17.90;15.20;;;;;;;14.52;41.80;100514.53;103323;1255;137603;-76
2024/03/21 10:33:52;;;;;;;21.70;15.50;;;;;;;14.28;42.24;100505.23;103295;1251;99643;-75
2024/03/21 10:36:18;;;;;;;20.80;15.20;;;;;;;14.13;42.99;100509.00;103427;1255;112108;-75
2024/03/21 10:38:46;;;;;;;20.90;15.50;;;;;;;14.01;43.20;100502.18;103308;1252;138586;-75
2024/03/21 10:41:18;;;;;;;19.00;15.10;;;;;;;13.86;43.28;100502.81;103412;1256;99143;-75
2024/03/21 10:43:52;;;;;;;20.20;14.80;;;;;;;13.79;44.07;100499.41;103261;1255;142905;-75
2024/03/21 10:46:19;;;;;;;19.80;15.00;;;;;;;13.73;43.83;100500.73;103423;1255;99373;-75
2024/03/21 10:48:46;;;;;;;19.80;15.10;;;;;;;13.63;44.06;100496.41;103415;1255;111976;-76
2024/03/21 10:51:15;;;;;;;19.80;15.40;;;;;;;13.58;43.88;100489.25;103397;1253;106121;-76
2024/03/21 10:53:51;;;;;;;18.90;14.90;;;;;;;13.49;44.04;100498.73;103517;1252;99158;-75
2024/03/21 10:56:17;;;;;;;21.70;14.90;;;;;;;13.48;44.50;100486.17;103340;1255;138184;-76
2024/03/21 10:58:44;;;;;;;21.10;15.30;;;;;;;13.55;44.50;100488.18;103527;1255;99213;-75
2024/03/21 11:01:11;;;;;;;19.60;15.20;;;;;;;13.51;43.88;100499.52;103369;1255;138555;-76
2024/03/21 11:03:51;;;;;;;19.00;15.40;;;;;;;13.37;44.03;100496.23;103321;1255;107777;-76
2024/03/21 11:06:18;;;;;;;19.10;14.70;;;;;;;13.33;44.43;100485.05;103397;1264;99631;-76
2024/03/21 11:08:55;;;;;;;16.50;14.40;;;;;;;13.34;44.36;100491.11;103081;1257;138287;-76